createdAt,value
2018-05-24T00:00:51.513Z,18.20
2018-05-24T00:03:19.069Z,18.20
2018-05-24T00:05:46.635Z,18.10
2018-05-24T00:08:14.163Z,18.10
2018-05-24T00:10:42.469Z,18.10
2018-05-24T00:13:10.030Z,18.00
2018-05-24T00:15:37.590Z,18.00
2018-05-24T00:18:05.155Z,18.00
2018-05-24T00:20:32.663Z,17.90
2018-05-24T00:23:00.219Z,17.90
2018-05-24T00:25:27.752Z,17.90
2018-05-24T00:27:55.297Z,17.80
2018-05-24T00:30:22.814Z,17.70
2018-05-24T00:32:51.113Z,17.60
2018-05-24T00:35:18.624Z,17.60
2018-05-24T00:37:46.158Z,17.60
2018-05-24T00:40:13.709Z,17.60
2018-05-24T00:42:41.237Z,17.50
2018-05-24T00:45:09.539Z,17.40
2018-05-24T00:47:37.049Z,17.40
2018-05-24T00:50:04.561Z,17.40
2018-05-24T00:52:32.103Z,17.40
2018-05-24T00:55:12.209Z,17.30
2018-05-24T00:57:39.750Z,17.30
2018-05-24T01:00:07.259Z,17.30
2018-05-24T01:02:35.549Z,17.20
2018-05-24T01:05:03.959Z,17.10
2018-05-24T01:07:31.521Z,17.10
2018-05-24T01:09:59.026Z,17.10
2018-05-24T01:12:26.625Z,17.10
2018-05-24T01:14:54.198Z,17.10
2018-05-24T01:17:21.730Z,17.00
2018-05-24T01:19:50.124Z,16.90
2018-05-24T01:22:17.689Z,16.90
2018-05-24T01:24:45.259Z,16.90
2018-05-24T01:27:12.791Z,16.80
2018-05-24T01:29:41.091Z,16.70
2018-05-24T01:32:08.659Z,16.80
2018-05-24T01:34:36.195Z,16.80
2018-05-24T01:37:16.369Z,16.70
2018-05-24T01:39:43.935Z,16.70
2018-05-24T01:42:11.469Z,16.70
2018-05-24T01:44:39.758Z,16.70
2018-05-24T01:47:07.291Z,16.70
2018-05-24T01:49:35.587Z,16.60
2018-05-24T01:52:03.870Z,16.60
2018-05-24T01:54:31.601Z,16.60
2018-05-24T01:56:59.209Z,16.60
2018-05-24T01:59:26.723Z,16.60
2018-05-24T02:01:54.437Z,16.50
2018-05-24T02:04:21.981Z,16.50
2018-05-24T02:06:49.541Z,16.50
2018-05-24T02:09:17.109Z,16.50
2018-05-24T02:11:44.615Z,16.50
2018-05-24T02:14:12.131Z,16.40
2018-05-24T02:16:39.683Z,16.40
2018-05-24T02:19:07.199Z,16.40
2018-05-24T02:21:34.737Z,16.40
2018-05-24T02:24:02.265Z,16.40
2018-05-24T02:26:29.780Z,16.40
2018-05-24T02:28:57.318Z,16.40
2018-05-24T02:31:24.956Z,16.40
2018-05-24T02:33:52.485Z,16.30
2018-05-24T02:36:20.763Z,16.30
2018-05-24T02:38:49.065Z,16.30
2018-05-24T02:41:16.621Z,16.30
2018-05-24T02:43:44.149Z,16.30
2018-05-24T02:46:12.465Z,16.20
2018-05-24T02:48:40.029Z,16.10
2018-05-24T02:51:07.552Z,16.20
2018-05-24T02:53:36.037Z,16.10
2018-05-24T02:56:04.329Z,16.10
2018-05-24T02:58:31.857Z,16.00
2018-05-24T03:01:00.290Z,16.00
2018-05-24T03:03:27.959Z,16.00
2018-05-24T03:05:55.489Z,16.00
2018-05-24T03:08:23.890Z,15.90
2018-05-24T03:10:51.405Z,15.90
2018-05-24T03:13:19.018Z,15.90
2018-05-24T03:15:46.537Z,15.90
2018-05-24T03:18:14.839Z,15.80
2018-05-24T03:20:42.367Z,15.80
2018-05-24T03:23:10.660Z,15.80
2018-05-24T03:25:38.954Z,15.70
2018-05-24T03:28:06.629Z,15.70
2018-05-24T03:30:34.180Z,15.70
2018-05-24T03:33:01.703Z,15.70
2018-05-24T03:35:29.222Z,15.70
2018-05-24T03:37:56.752Z,15.70
2018-05-24T03:40:24.280Z,15.60
2018-05-24T03:42:51.800Z,15.70
2018-05-24T03:45:19.336Z,15.60
2018-05-24T03:47:46.858Z,15.70
2018-05-24T03:50:14.466Z,15.70
2018-05-24T03:52:41.996Z,15.70
2018-05-24T03:55:10.347Z,15.60
2018-05-24T03:57:38.034Z,15.60
2018-05-24T04:00:17.204Z,15.60
2018-05-24T04:02:56.664Z,15.50
2018-05-24T04:05:24.556Z,15.50
2018-05-24T04:07:52.079Z,15.50
2018-05-24T04:10:19.606Z,15.50
2018-05-24T04:12:47.908Z,15.50
2018-05-24T04:15:15.460Z,15.40
2018-05-24T04:17:42.992Z,15.50
2018-05-24T04:20:11.284Z,15.50
2018-05-24T04:22:38.808Z,15.50
2018-05-24T04:25:06.420Z,15.50
2018-05-24T04:27:33.985Z,15.40
2018-05-24T04:30:02.367Z,15.40
2018-05-24T04:32:29.921Z,15.40
2018-05-24T04:34:57.449Z,15.50
2018-05-24T04:37:25.745Z,15.50
2018-05-24T04:39:53.253Z,15.50
2018-05-24T04:42:20.788Z,15.50
2018-05-24T04:44:48.303Z,15.50
2018-05-24T04:47:16.594Z,15.50
2018-05-24T04:49:44.163Z,15.50
2018-05-24T04:52:11.786Z,15.50
2018-05-24T04:54:39.241Z,15.60
2018-05-24T04:57:06.769Z,15.50
2018-05-24T04:59:34.287Z,15.60
2018-05-24T05:02:02.590Z,15.70
2018-05-24T05:04:30.120Z,15.70
2018-05-24T05:06:58.414Z,15.90
2018-05-24T05:09:25.923Z,15.90
2018-05-24T05:11:53.549Z,15.90
2018-05-24T05:14:21.081Z,15.90
2018-05-24T05:16:49.367Z,16.00
2018-05-24T05:19:16.893Z,16.00
2018-05-24T05:21:44.404Z,16.00
2018-05-24T05:24:11.949Z,16.00
2018-05-24T05:26:39.467Z,15.90
2018-05-24T05:29:06.985Z,15.90
2018-05-24T05:31:34.549Z,15.90
2018-05-24T05:34:02.092Z,15.80
2018-05-24T05:36:29.651Z,15.80
2018-05-24T05:38:57.181Z,15.70
2018-05-24T05:41:24.727Z,15.80
2018-05-24T05:43:52.241Z,15.80
2018-05-24T05:46:19.792Z,15.90
2018-05-24T05:48:47.329Z,15.90
2018-05-24T05:51:15.639Z,16.10
2018-05-24T05:53:43.156Z,16.10
2018-05-24T05:56:10.681Z,16.20
2018-05-24T05:58:38.196Z,16.30
2018-05-24T06:01:06.477Z,16.40
2018-05-24T06:03:34.005Z,16.40
2018-05-24T06:06:01.525Z,16.50
2018-05-24T06:08:29.055Z,16.70
2018-05-24T06:10:56.637Z,16.80
2018-05-24T06:13:24.180Z,16.90
2018-05-24T06:15:51.761Z,17.00
2018-05-24T06:18:19.280Z,17.20
2018-05-24T06:20:47.592Z,17.40
2018-05-24T06:23:15.129Z,17.50
2018-05-24T06:25:43.421Z,17.60
2018-05-24T06:28:10.942Z,17.50
2018-05-24T06:30:38.552Z,17.60
2018-05-24T06:33:06.869Z,17.60
2018-05-24T06:35:34.394Z,17.50
2018-05-24T06:38:01.913Z,17.50
2018-05-24T06:40:30.397Z,17.40
2018-05-24T06:42:57.858Z,17.40
2018-05-24T06:45:26.154Z,17.40
2018-05-24T06:47:53.725Z,17.40
2018-05-24T06:50:21.254Z,17.40
2018-05-24T06:52:49.564Z,17.60
2018-05-24T06:55:17.121Z,17.60
2018-05-24T06:57:44.646Z,17.70
2018-05-24T07:00:12.924Z,17.90
2018-05-24T07:02:41.283Z,18.00
2018-05-24T07:05:08.815Z,18.00
2018-05-24T07:07:36.342Z,18.10
2018-05-24T07:10:03.958Z,18.30
2018-05-24T07:12:31.474Z,18.40
2018-05-24T07:14:59.005Z,18.60
2018-05-24T07:17:27.305Z,18.80
2018-05-24T07:19:54.844Z,18.80
2018-05-24T07:22:23.126Z,19.00
2018-05-24T07:24:51.526Z,19.10
2018-05-24T07:27:19.094Z,19.00
2018-05-24T07:29:46.655Z,19.20
2018-05-24T07:32:14.186Z,19.30
2018-05-24T07:34:42.492Z,19.40
2018-05-24T07:37:10.051Z,19.40
2018-05-24T07:39:37.595Z,19.50
2018-05-24T07:42:05.126Z,19.50
2018-05-24T07:44:32.647Z,19.60
2018-05-24T07:47:00.196Z,19.70
2018-05-24T07:49:27.752Z,19.80
2018-05-24T07:51:55.275Z,20.00
2018-05-24T07:54:23.580Z,20.10
2018-05-24T07:56:51.098Z,20.00
2018-05-24T07:59:20.144Z,20.30
2018-05-24T08:01:47.704Z,20.30
2018-05-24T08:04:15.242Z,20.50
2018-05-24T08:06:43.533Z,20.90
2018-05-24T08:09:11.074Z,20.80
2018-05-24T08:11:39.380Z,21.00
2018-05-24T08:14:06.904Z,21.00
2018-05-24T08:16:35.209Z,21.30
2018-05-24T08:19:02.734Z,21.30
2018-05-24T08:21:31.027Z,21.50
2018-05-24T08:23:59.327Z,21.60
2018-05-24T08:26:26.850Z,21.60
2018-05-24T08:28:55.141Z,21.90
2018-05-24T08:31:23.452Z,22.20
2018-05-24T08:33:50.969Z,22.10
2018-05-24T08:36:19.287Z,22.70
2018-05-24T08:38:46.833Z,22.80
2018-05-24T08:41:15.107Z,23.20
2018-05-24T08:43:42.633Z,23.20
2018-05-24T08:46:10.953Z,23.00
2018-05-24T08:48:38.725Z,22.90
2018-05-24T08:51:06.259Z,22.60
2018-05-24T08:53:34.756Z,22.50
2018-05-24T08:56:02.281Z,22.40
2018-05-24T08:58:31.333Z,22.50
2018-05-24T09:00:58.987Z,22.50
2018-05-24T09:03:26.545Z,22.60
2018-05-24T09:05:54.101Z,22.60
2018-05-24T09:08:21.664Z,22.70
2018-05-24T09:10:49.203Z,22.70
2018-05-24T09:13:17.495Z,22.80
2018-05-24T09:15:45.041Z,22.80
2018-05-24T09:18:13.431Z,23.00
2018-05-24T09:20:41.000Z,22.90
2018-05-24T09:23:08.554Z,23.00
2018-05-24T09:25:36.072Z,22.70
2018-05-24T09:28:03.591Z,22.60
2018-05-24T09:30:31.138Z,22.60
2018-05-24T09:32:58.660Z,22.40
2018-05-24T09:35:26.948Z,22.80
2018-05-24T09:37:55.239Z,22.80
2018-05-24T09:40:22.764Z,22.80
2018-05-24T09:42:50.295Z,22.80
2018-05-24T09:45:17.820Z,23.00
2018-05-24T09:47:45.338Z,23.50
2018-05-24T09:50:14.383Z,24.00
2018-05-24T09:52:41.917Z,24.00
2018-05-24T09:55:10.255Z,24.70
2018-05-24T09:57:37.730Z,24.60
2018-05-24T10:00:05.268Z,25.00
2018-05-24T10:02:32.789Z,24.70
2018-05-24T10:05:00.358Z,24.60
2018-05-24T10:07:27.898Z,24.60
2018-05-24T10:09:56.191Z,24.60
2018-05-24T10:12:23.706Z,24.60
2018-05-24T10:14:51.262Z,24.60
2018-05-24T10:17:18.790Z,24.80
2018-05-24T10:19:46.307Z,25.00
2018-05-24T10:22:14.624Z,25.10
2018-05-24T10:24:42.333Z,25.10
2018-05-24T10:27:11.379Z,25.20
2018-05-24T10:29:38.918Z,25.10
2018-05-24T10:32:07.323Z,25.20
2018-05-24T10:34:34.873Z,25.20
2018-05-24T10:37:02.415Z,25.10
2018-05-24T10:39:30.718Z,25.00
2018-05-24T10:41:58.227Z,25.00
2018-05-24T10:44:27.269Z,25.10
2018-05-24T10:46:54.941Z,25.10
2018-05-24T10:49:22.471Z,25.30
2018-05-24T10:51:50.776Z,25.70
2018-05-24T10:54:18.397Z,25.70
2018-05-24T10:56:45.905Z,25.90
2018-05-24T10:59:13.493Z,26.10
2018-05-24T11:01:41.109Z,25.70
2018-05-24T11:04:08.628Z,25.40
2018-05-24T11:06:37.968Z,25.40
2018-05-24T11:09:05.489Z,25.60
2018-05-24T11:11:33.031Z,25.80
2018-05-24T11:14:00.563Z,25.70
2018-05-24T11:16:28.113Z,25.40
2018-05-24T11:18:55.655Z,25.40
2018-05-24T11:21:24.033Z,26.50
2018-05-24T11:23:52.336Z,26.80
2018-05-24T11:26:19.889Z,26.80
2018-05-24T11:28:47.417Z,26.70
2018-05-24T11:31:15.017Z,26.90
2018-05-24T11:33:42.583Z,26.80
2018-05-24T11:36:10.113Z,26.20
2018-05-24T11:38:38.411Z,25.60
2018-05-24T11:41:05.952Z,25.60
2018-05-24T11:43:33.489Z,25.50
2018-05-24T11:46:01.097Z,25.70
2018-05-24T11:48:28.654Z,25.80
2018-05-24T11:50:56.210Z,25.60
2018-05-24T11:53:23.728Z,25.60
2018-05-24T11:55:51.335Z,25.40
2018-05-24T11:58:18.900Z,25.50
2018-05-24T12:00:46.563Z,25.50
2018-05-24T12:03:14.150Z,25.90
2018-05-24T12:05:41.692Z,26.20
2018-05-24T12:08:09.226Z,26.40
2018-05-24T12:10:36.801Z,26.20
2018-05-24T12:13:04.353Z,26.40
2018-05-24T12:15:31.931Z,26.30
2018-05-24T12:17:59.460Z,26.50
2018-05-24T12:20:28.994Z,26.50
2018-05-24T12:22:58.076Z,26.10
2018-05-24T12:25:25.599Z,26.10
2018-05-24T12:27:53.138Z,26.40
2018-05-24T12:30:20.766Z,26.90
2018-05-24T12:32:48.298Z,27.50
2018-05-24T12:35:16.608Z,27.30
2018-05-24T12:37:44.172Z,27.30
2018-05-24T12:40:11.730Z,27.10
2018-05-24T12:42:39.284Z,27.00
2018-05-24T12:45:06.808Z,27.10
2018-05-24T12:47:35.106Z,27.70
2018-05-24T12:50:03.415Z,27.80
2018-05-24T12:52:30.970Z,27.80
2018-05-24T12:54:58.502Z,27.80
2018-05-24T12:57:26.820Z,27.70
2018-05-24T12:59:54.349Z,27.60
2018-05-24T13:02:22.756Z,26.70
2018-05-24T13:04:50.285Z,26.60
2018-05-24T13:07:18.696Z,26.00
2018-05-24T13:09:46.298Z,26.00
2018-05-24T13:12:13.777Z,25.80
2018-05-24T13:14:42.069Z,26.00
2018-05-24T13:17:10.579Z,26.00
2018-05-24T13:19:38.275Z,26.10
2018-05-24T13:22:05.805Z,26.40
2018-05-24T13:24:33.438Z,26.90
2018-05-24T13:27:00.910Z,27.20
2018-05-24T13:29:28.423Z,27.20
2018-05-24T13:31:55.955Z,27.00
2018-05-24T13:34:23.502Z,26.90
2018-05-24T13:36:51.030Z,26.60
2018-05-24T13:39:18.567Z,26.60
2018-05-24T13:41:46.882Z,26.50
2018-05-24T13:44:14.458Z,26.40
2018-05-24T13:46:42.012Z,26.70
2018-05-24T13:49:09.548Z,26.60
2018-05-24T13:51:37.073Z,26.50
2018-05-24T13:54:04.615Z,26.10
2018-05-24T13:56:32.147Z,26.10
2018-05-24T13:58:59.669Z,26.20
2018-05-24T14:01:28.040Z,26.00
2018-05-24T14:03:55.517Z,25.90
2018-05-24T14:06:23.807Z,26.30
2018-05-24T14:08:51.329Z,26.30
2018-05-24T14:11:18.859Z,26.60
2018-05-24T14:13:46.375Z,26.90
2018-05-24T14:16:14.654Z,27.10
2018-05-24T14:18:42.959Z,26.70
2018-05-24T14:21:10.487Z,26.70
2018-05-24T14:23:38.776Z,25.70
2018-05-24T14:26:06.324Z,25.70
2018-05-24T14:28:34.707Z,24.90
2018-05-24T14:31:03.013Z,24.60
2018-05-24T14:33:30.546Z,24.60
2018-05-24T14:35:58.824Z,24.20
2018-05-24T14:38:27.124Z,23.80
2018-05-24T14:40:54.761Z,23.80
2018-05-24T14:43:23.057Z,23.30
2018-05-24T14:45:50.584Z,23.30
2018-05-24T14:48:18.919Z,23.30
2018-05-24T14:50:46.453Z,23.30
2018-05-24T14:53:13.975Z,23.30
2018-05-24T14:55:41.501Z,23.20
2018-05-24T14:58:09.022Z,23.20
2018-05-24T15:00:37.314Z,23.10
2018-05-24T15:03:04.857Z,23.10
2018-05-24T15:05:33.194Z,22.90
2018-05-24T15:08:00.684Z,22.90
2018-05-24T15:10:29.099Z,22.90
2018-05-24T15:12:56.615Z,22.90
2018-05-24T15:15:24.947Z,23.00
2018-05-24T15:17:52.503Z,23.00
2018-05-24T15:20:20.043Z,23.10
2018-05-24T15:22:47.565Z,23.10
2018-05-24T15:25:15.107Z,23.10
2018-05-24T15:27:42.662Z,23.00
2018-05-24T15:30:10.204Z,22.80
2018-05-24T15:32:37.785Z,22.80
2018-05-24T15:35:05.426Z,22.70
2018-05-24T15:37:32.954Z,22.70
2018-05-24T15:40:01.264Z,22.70
2018-05-24T15:42:28.810Z,22.60
2018-05-24T15:44:56.364Z,22.70
2018-05-24T15:47:23.932Z,22.70
2018-05-24T15:49:51.457Z,22.60
2018-05-24T15:52:19.766Z,22.70
2018-05-24T15:54:47.337Z,22.70
2018-05-24T15:57:14.900Z,22.80
2018-05-24T15:59:42.459Z,22.80
2018-05-24T16:02:10.014Z,22.70
2018-05-24T16:04:37.550Z,22.70
2018-05-24T16:07:05.846Z,22.60
2018-05-24T16:09:33.385Z,22.60
2018-05-24T16:12:01.703Z,22.50
2018-05-24T16:14:29.226Z,22.50
2018-05-24T16:16:57.523Z,22.40
2018-05-24T16:19:25.060Z,22.40
2018-05-24T16:21:53.371Z,22.40
2018-05-24T16:24:20.933Z,22.40
2018-05-24T16:26:48.466Z,22.40
2018-05-24T16:29:16.766Z,22.40
2018-05-24T16:31:44.333Z,22.40
2018-05-24T16:34:11.984Z,22.30
2018-05-24T16:36:39.508Z,22.20
2018-05-24T16:39:07.810Z,22.00
2018-05-24T16:41:36.100Z,22.00
2018-05-24T16:44:03.623Z,21.90
2018-05-24T16:46:31.147Z,21.90
2018-05-24T16:48:58.708Z,21.90
2018-05-24T16:51:26.260Z,21.90
2018-05-24T16:53:53.790Z,21.90
2018-05-24T16:56:22.080Z,22.00
2018-05-24T16:58:49.608Z,22.00
2018-05-24T17:01:17.924Z,22.00
2018-05-24T17:03:45.456Z,22.00
2018-05-24T17:06:13.768Z,21.80
2018-05-24T17:08:41.303Z,21.80
2018-05-24T17:11:08.839Z,21.80
2018-05-24T17:13:37.141Z,21.80
2018-05-24T17:16:05.529Z,21.90
2018-05-24T17:18:33.061Z,21.80
2018-05-24T17:21:01.363Z,21.80
2018-05-24T17:23:28.909Z,21.80
2018-05-24T17:25:57.214Z,21.50
2018-05-24T17:28:24.791Z,21.40
2018-05-24T17:30:52.341Z,21.40
2018-05-24T17:33:19.870Z,21.30
2018-05-24T17:35:48.160Z,21.40
2018-05-24T17:38:15.722Z,21.40
2018-05-24T17:40:43.249Z,21.50
2018-05-24T17:43:12.611Z,21.60
2018-05-24T17:45:40.141Z,21.50
2018-05-24T17:48:07.670Z,21.60
2018-05-24T17:50:35.280Z,21.60
2018-05-24T17:53:02.824Z,21.60
2018-05-24T17:55:30.348Z,21.60
2018-05-24T17:57:57.879Z,21.60
2018-05-24T18:00:25.520Z,21.60
2018-05-24T18:02:53.052Z,21.60
2018-05-24T18:05:21.353Z,21.40
2018-05-24T18:07:49.096Z,21.40
2018-05-24T18:10:17.414Z,21.00
2018-05-24T18:12:44.960Z,21.00
2018-05-24T18:15:12.511Z,20.90
2018-05-24T18:17:40.032Z,20.80
2018-05-24T18:20:07.569Z,20.70
2018-05-24T18:22:35.117Z,20.60
2018-05-24T18:25:02.662Z,20.40
2018-05-24T18:27:31.508Z,20.20
2018-05-24T18:29:59.043Z,20.00
2018-05-24T18:32:26.561Z,20.00
2018-05-24T18:34:54.103Z,19.90
2018-05-24T18:37:22.424Z,19.90
2018-05-24T18:39:50.026Z,19.90
2018-05-24T18:42:18.373Z,19.90
2018-05-24T18:44:45.914Z,19.90
2018-05-24T18:47:13.441Z,19.90
2018-05-24T18:49:41.732Z,19.90
2018-05-24T18:52:09.276Z,19.90
2018-05-24T18:54:37.577Z,19.80
2018-05-24T18:57:05.105Z,19.90
2018-05-24T18:59:33.401Z,19.80
2018-05-24T19:02:01.704Z,19.80
2018-05-24T19:04:29.256Z,19.80
2018-05-24T19:06:56.799Z,19.80
2018-05-24T19:09:25.108Z,19.60
2018-05-24T19:11:52.736Z,19.60
2018-05-24T19:14:21.041Z,19.50
2018-05-24T19:16:48.592Z,19.50
2018-05-24T19:19:16.116Z,19.50
2018-05-24T19:21:43.654Z,19.40
2018-05-24T19:24:11.192Z,19.30
2018-05-24T19:26:38.716Z,19.30
2018-05-24T19:29:07.119Z,19.10
2018-05-24T19:31:34.686Z,19.10
2018-05-24T19:34:02.242Z,19.10
2018-05-24T19:36:29.788Z,19.00
2018-05-24T19:38:57.331Z,19.00
2018-05-24T19:41:25.622Z,18.90
2018-05-24T19:43:53.156Z,18.90
2018-05-24T19:46:21.456Z,18.90
2018-05-24T19:48:48.983Z,18.80
2018-05-24T19:51:18.036Z,18.80
2018-05-24T19:53:45.561Z,18.70
2018-05-24T19:56:13.867Z,18.70
2018-05-24T19:58:41.433Z,18.70
2018-05-24T20:01:08.975Z,18.70
2018-05-24T20:03:36.519Z,18.60
2018-05-24T20:06:04.828Z,18.50
2018-05-24T20:08:32.398Z,18.50
2018-05-24T20:10:59.961Z,18.50
2018-05-24T20:13:27.508Z,18.50
2018-05-24T20:15:55.026Z,18.50
2018-05-24T20:18:22.555Z,18.50
2018-05-24T20:20:50.104Z,18.50
2018-05-24T20:23:17.643Z,18.50
2018-05-24T20:25:45.185Z,18.40
2018-05-24T20:28:13.490Z,18.40
2018-05-24T20:30:41.776Z,18.50
2018-05-24T20:33:09.292Z,18.30
2018-05-24T20:35:37.637Z,18.30
2018-05-24T20:38:05.150Z,18.30
2018-05-24T20:40:32.692Z,18.30
2018-05-24T20:43:01.012Z,18.20
2018-05-24T20:45:28.541Z,18.20
2018-05-24T20:47:56.113Z,18.20
2018-05-24T20:50:23.696Z,18.20
2018-05-24T20:52:51.225Z,18.20
2018-05-24T20:55:19.532Z,18.10
2018-05-24T20:57:47.184Z,18.10
2018-05-24T21:00:14.721Z,18.10
2018-05-24T21:02:42.248Z,18.10
2018-05-24T21:05:09.857Z,18.00
2018-05-24T21:07:37.417Z,18.00
2018-05-24T21:10:04.954Z,18.00
2018-05-24T21:12:33.265Z,17.90
2018-05-24T21:15:00.805Z,17.90
2018-05-24T21:17:28.325Z,17.90
2018-05-24T21:19:55.943Z,17.90
2018-05-24T21:22:23.473Z,17.90
2018-05-24T21:24:51.877Z,17.80
2018-05-24T21:27:19.426Z,17.80
2018-05-24T21:29:46.949Z,17.80
2018-05-24T21:32:15.245Z,17.80
2018-05-24T21:34:43.559Z,17.80
2018-05-24T21:37:11.116Z,17.70
2018-05-24T21:39:38.746Z,17.70
2018-05-24T21:42:06.301Z,17.80
2018-05-24T21:44:34.597Z,17.80
2018-05-24T21:47:02.118Z,17.70
2018-05-24T21:49:29.655Z,17.80
2018-05-24T21:51:57.177Z,17.70
2018-05-24T21:54:24.745Z,17.70
2018-05-24T21:56:52.322Z,17.60
2018-05-24T21:59:19.851Z,17.60
2018-05-24T22:01:48.153Z,17.60
2018-05-24T22:04:15.672Z,17.60
2018-05-24T22:06:43.200Z,17.50
2018-05-24T22:09:10.744Z,17.60
2018-05-24T22:11:38.290Z,17.50
2018-05-24T22:14:05.805Z,17.50
2018-05-24T22:16:33.340Z,17.50
2018-05-24T22:19:00.974Z,17.40
2018-05-24T22:21:28.504Z,17.40
2018-05-24T22:23:56.791Z,17.40
2018-05-24T22:26:25.087Z,17.40
2018-05-24T22:28:52.613Z,17.40
2018-05-24T22:31:20.899Z,17.30
2018-05-24T22:33:49.199Z,17.30
2018-05-24T22:36:16.734Z,17.30
2018-05-24T22:38:45.030Z,17.20
2018-05-24T22:41:12.603Z,17.20
2018-05-24T22:43:40.162Z,17.20
2018-05-24T22:46:07.721Z,17.10
2018-05-24T22:48:35.257Z,17.10
2018-05-24T22:51:03.553Z,17.00
2018-05-24T22:53:31.077Z,17.00
2018-05-24T22:55:58.611Z,17.00
2018-05-24T22:58:26.236Z,17.00
2018-05-24T23:00:53.757Z,17.00
2018-05-24T23:03:21.285Z,17.00
2018-05-24T23:05:48.842Z,16.90
2018-05-24T23:08:16.345Z,16.90
2018-05-24T23:10:44.760Z,16.90
2018-05-24T23:13:12.307Z,16.90
2018-05-24T23:15:39.829Z,16.90
2018-05-24T23:18:07.385Z,16.90
2018-05-24T23:20:35.671Z,16.90
2018-05-24T23:23:03.193Z,16.80
2018-05-24T23:25:30.735Z,16.90
2018-05-24T23:27:58.261Z,16.80
2018-05-24T23:30:26.559Z,16.80
2018-05-24T23:32:54.091Z,16.70
2018-05-24T23:35:21.703Z,16.70
2018-05-24T23:37:49.249Z,16.70
2018-05-24T23:40:16.770Z,16.70
2018-05-24T23:42:45.058Z,16.60
2018-05-24T23:45:13.353Z,16.60
2018-05-24T23:47:40.891Z,16.60
2018-05-24T23:50:09.203Z,16.60
2018-05-24T23:52:36.781Z,16.50
2018-05-24T23:55:04.312Z,16.60
2018-05-24T23:57:31.832Z,16.50
2018-05-24T23:59:59.353Z,16.50
